PTI737 VOCI-EGKK
Flight info
| Callsign | PTI737 |
|---|---|
| Flight time | N/A |
| Altitude | 34000 |
| Route | AKLON1C AKLON P895 VASTU M300 LOTAV N569 UMILA L883 SITOL DCT ALROK DCT BOSOB DCT ITRUX Y511 PMA Z712 WEJ L677 GESON Q777 RASDA DCT OTHON DCT VAXOS DCT RDS UL609 MES DCT FSK DCT DISOR DCT LONTA UL608 DOLEV DCT SABAD DCT KUBUD DCT SOTOV DCT XEBIX DCT USUDO DCT LIRSU DCT DENUT L610 TEBRA |
| Aircraft | B737/M-SDE2E3FGHIRWXY/LB1 |
Departure
| Time | 2026-05-05 21:30 |
|---|---|
| Airport | Cochin International Airport (VOCI) |
Arrival
| Time | N/A |
|---|---|
| Airport | London Gatwick Airport (EGKK) |
| Time | Latitude | Longitude | Altitude | Speed | Heading |
|---|---|---|---|---|---|
| 2026-05-05 21:05 | 10.15455 | 76.39552 | 22 ft | 0 kts | 2° |
| 2026-05-05 21:21 | 10.15434 | 76.39551 | 24 ft | 4 kts | 2° |
| 2026-05-05 21:21 | 10.15407 | 76.39550 | 23 ft | 4 kts | 2° |
| 2026-05-05 21:22 | 10.15384 | 76.39550 | 22 ft | 4 kts | 4° |
| 2026-05-05 21:22 | 10.15366 | 76.39542 | 23 ft | 4 kts | 75° |
| 2026-05-05 21:22 | 10.15363 | 76.39515 | 25 ft | 4 kts | 90° |
| 2026-05-05 21:22 | 10.15363 | 76.39489 | 26 ft | 4 kts | 89° |
| 2026-05-05 21:23 | 10.15363 | 76.39462 | 26 ft | 4 kts | 89° |
| 2026-05-05 21:23 | 10.15362 | 76.39436 | 26 ft | 2 kts | 89° |
| 2026-05-05 21:23 | 10.15362 | 76.39434 | 26 ft | 1 kts | 89° |
| 2026-05-05 21:25 | 10.15362 | 76.39458 | 25 ft | 10 kts | 92° |
| 2026-05-05 21:25 | 10.15278 | 76.39553 | 24 ft | 24 kts | 115° |
| 2026-05-05 21:25 | 10.15273 | 76.39720 | 25 ft | 24 kts | 88° |
| 2026-05-05 21:26 | 10.15279 | 76.39882 | 24 ft | 23 kts | 88° |
| 2026-05-05 21:26 | 10.15286 | 76.40039 | 24 ft | 22 kts | 88° |
| 2026-05-05 21:26 | 10.15292 | 76.40192 | 23 ft | 21 kts | 88° |
| 2026-05-05 21:26 | 10.15298 | 76.40341 | 23 ft | 21 kts | 88° |
| 2026-05-05 21:27 | 10.15303 | 76.40485 | 26 ft | 20 kts | 88° |
| 2026-05-05 21:27 | 10.15309 | 76.40624 | 23 ft | 19 kts | 88° |
| 2026-05-05 21:27 | 10.15314 | 76.40760 | 23 ft | 19 kts | 88° |
| 2026-05-05 21:27 | 10.15319 | 76.40890 | 23 ft | 18 kts | 88° |
| 2026-05-05 21:28 | 10.15324 | 76.41017 | 23 ft | 18 kts | 88° |
| 2026-05-05 21:28 | 10.15329 | 76.41139 | 23 ft | 17 kts | 88° |
| 2026-05-05 21:28 | 10.15334 | 76.41256 | 23 ft | 16 kts | 88° |
| 2026-05-05 21:28 | 10.15338 | 76.41370 | 23 ft | 16 kts | 88° |
| 2026-05-05 21:29 | 10.15342 | 76.41478 | 24 ft | 15 kts | 89° |
| 2026-05-05 21:29 | 10.15315 | 76.41575 | 27 ft | 14 kts | 143° |
| 2026-05-05 21:29 | 10.15221 | 76.41589 | 29 ft | 14 kts | 186° |
| 2026-05-05 21:29 | 10.15165 | 76.41498 | 29 ft | 26 kts | 269° |
| 2026-05-05 21:30 | 10.15150 | 76.41047 | 28 ft | 102 kts | 268° |
| 2026-05-05 21:30 | 10.15116 | 76.40089 | 31 ft | 167 kts | 268° |
| 2026-05-05 21:30 | 10.15063 | 76.38806 | 519 ft | 178 kts | 265° |
| 2026-05-05 21:30 | 10.14949 | 76.37646 | 1623 ft | 163 kts | 266° |
| 2026-05-05 21:31 | 10.14885 | 76.36394 | 1996 ft | 191 kts | 271° |
| 2026-05-05 21:31 | 10.14950 | 76.34964 | 2265 ft | 216 kts | 287° |
| 2026-05-05 21:31 | 10.15594 | 76.33528 | 2616 ft | 231 kts | 298° |
| 2026-05-05 21:31 | 10.16334 | 76.32060 | 3227 ft | 236 kts | 297° |
| 2026-05-05 21:32 | 10.17070 | 76.30550 | 3822 ft | 245 kts | 297° |
| 2026-05-05 21:32 | 10.17851 | 76.28913 | 4151 ft | 267 kts | 296° |
| 2026-05-05 21:32 | 10.18652 | 76.27198 | 4935 ft | 269 kts | 296° |
| 2026-05-05 21:32 | 10.19449 | 76.25466 | 5715 ft | 274 kts | 296° |
| 2026-05-05 21:33 | 10.20258 | 76.23694 | 6389 ft | 280 kts | 296° |
| 2026-05-05 21:33 | 10.21078 | 76.21888 | 6897 ft | 284 kts | 296° |
| 2026-05-05 21:33 | 10.22089 | 76.20155 | 7570 ft | 285 kts | 310° |
| 2026-05-05 21:33 | 10.23373 | 76.18632 | 8367 ft | 284 kts | 314° |
| 2026-05-05 21:34 | 10.24727 | 76.17150 | 9068 ft | 288 kts | 315° |
| 2026-05-05 21:34 | 10.26105 | 76.15657 | 9763 ft | 291 kts | 315° |
| 2026-05-05 21:34 | 10.27502 | 76.14132 | 10226 ft | 303 kts | 314° |
| 2026-05-05 21:34 | 10.28986 | 76.12497 | 10408 ft | 324 kts | 314° |
| 2026-05-05 21:35 | 10.30518 | 76.10790 | 10964 ft | 330 kts | 313° |
| 2026-05-05 21:35 | 10.32061 | 76.09056 | 11622 ft | 332 kts | 313° |
| 2026-05-05 21:35 | 10.33610 | 76.07305 | 12296 ft | 334 kts | 313° |
| 2026-05-05 21:35 | 10.35168 | 76.05538 | 12944 ft | 337 kts | 313° |
| 2026-05-05 21:36 | 10.36738 | 76.03752 | 13579 ft | 341 kts | 313° |
| 2026-05-05 21:36 | 10.38320 | 76.01950 | 14154 ft | 343 kts | 312° |
| 2026-05-05 21:36 | 10.39915 | 76.00133 | 14687 ft | 347 kts | 312° |
| 2026-05-05 21:36 | 10.41528 | 75.98292 | 15233 ft | 350 kts | 312° |
| 2026-05-05 21:37 | 10.43149 | 75.96442 | 15817 ft | 352 kts | 312° |
| 2026-05-05 21:37 | 10.44781 | 75.94578 | 16381 ft | 354 kts | 311° |
| 2026-05-05 21:37 | 10.46422 | 75.92703 | 16983 ft | 355 kts | 311° |
| 2026-05-05 21:37 | 10.48065 | 75.90827 | 17587 ft | 356 kts | 311° |
| 2026-05-05 21:38 | 10.49718 | 75.88939 | 18113 ft | 360 kts | 311° |
| 2026-05-05 21:38 | 10.51391 | 75.87027 | 18524 ft | 364 kts | 311° |
| 2026-05-05 21:38 | 10.53084 | 75.85092 | 18941 ft | 368 kts | 311° |
| 2026-05-05 21:38 | 10.54788 | 75.83144 | 19423 ft | 370 kts | 311° |
| 2026-05-05 21:39 | 10.56502 | 75.81185 | 19902 ft | 372 kts | 311° |
| 2026-05-05 21:39 | 10.58227 | 75.79212 | 20358 ft | 375 kts | 311° |
| 2026-05-05 21:39 | 10.59967 | 75.77223 | 20805 ft | 377 kts | 311° |
| 2026-05-05 21:39 | 10.61711 | 75.75227 | 21288 ft | 378 kts | 310° |
| 2026-05-05 21:40 | 10.63460 | 75.73227 | 21792 ft | 379 kts | 310° |
| 2026-05-05 21:40 | 10.65221 | 75.71212 | 22195 ft | 383 kts | 310° |
| 2026-05-05 21:40 | 10.66973 | 75.69206 | 22581 ft | 386 kts | 310° |
| 2026-05-05 21:40 | 10.68763 | 75.67157 | 23036 ft | 388 kts | 310° |
| 2026-05-05 21:41 | 10.70559 | 75.65100 | 23448 ft | 391 kts | 310° |
| 2026-05-05 21:41 | 10.72374 | 75.63023 | 23734 ft | 395 kts | 310° |
| 2026-05-05 21:41 | 10.74203 | 75.60928 | 24042 ft | 398 kts | 310° |
| 2026-05-05 21:41 | 10.76042 | 75.58821 | 24406 ft | 399 kts | 310° |
| 2026-05-05 21:42 | 10.77890 | 75.56703 | 24734 ft | 402 kts | 310° |
| 2026-05-05 21:42 | 10.79751 | 75.54571 | 25017 ft | 405 kts | 310° |
| 2026-05-05 21:42 | 10.81017 | 75.53120 | 25226 ft | 407 kts | 310° |
| 2026-05-05 21:42 | 10.82900 | 75.50961 | 25563 ft | 409 kts | 310° |
| 2026-05-05 21:43 | 10.84791 | 75.48792 | 25918 ft | 410 kts | 310° |
| 2026-05-05 21:43 | 10.86686 | 75.46618 | 26267 ft | 412 kts | 310° |
| 2026-05-05 21:43 | 10.88592 | 75.44432 | 26555 ft | 415 kts | 310° |
| 2026-05-05 21:43 | 10.90516 | 75.42225 | 26817 ft | 418 kts | 310° |
| 2026-05-05 21:44 | 10.92453 | 75.40002 | 27082 ft | 422 kts | 310° |
| 2026-05-05 21:44 | 10.94403 | 75.37763 | 27367 ft | 424 kts | 310° |
| 2026-05-05 21:44 | 10.96363 | 75.35512 | 27685 ft | 426 kts | 310° |
| 2026-05-05 21:44 | 10.98326 | 75.33259 | 28072 ft | 425 kts | 310° |
| 2026-05-05 21:45 | 11.00285 | 75.31008 | 28399 ft | 426 kts | 310° |
| 2026-05-05 21:45 | 11.02260 | 75.28740 | 28643 ft | 429 kts | 310° |
| 2026-05-05 21:45 | 11.04247 | 75.26457 | 28870 ft | 432 kts | 310° |
| 2026-05-05 21:45 | 11.06248 | 75.24156 | 29146 ft | 434 kts | 310° |
| 2026-05-05 21:46 | 11.08253 | 75.21851 | 29428 ft | 436 kts | 310° |
| 2026-05-05 21:46 | 11.10266 | 75.19536 | 29684 ft | 438 kts | 310° |
| 2026-05-05 21:46 | 11.12268 | 75.17234 | 29919 ft | 440 kts | 310° |
| 2026-05-05 21:46 | 11.14329 | 75.14862 | 30126 ft | 443 kts | 310° |
| 2026-05-05 21:47 | 11.16372 | 75.12511 | 30324 ft | 445 kts | 310° |
| 2026-05-05 21:47 | 11.18428 | 75.10145 | 30513 ft | 447 kts | 310° |
| 2026-05-05 21:47 | 11.20492 | 75.07769 | 30715 ft | 449 kts | 310° |
| 2026-05-05 21:47 | 11.22566 | 75.05380 | 30908 ft | 451 kts | 310° |
| 2026-05-05 21:48 | 11.24639 | 75.02993 | 31182 ft | 451 kts | 310° |
| 2026-05-05 21:48 | 11.26720 | 75.00595 | 31381 ft | 453 kts | 310° |
| 2026-05-05 21:48 | 11.28813 | 74.98182 | 31521 ft | 456 kts | 310° |
| 2026-05-05 21:48 | 11.30923 | 74.95749 | 31678 ft | 459 kts | 310° |
| 2026-05-05 21:49 | 11.33045 | 74.93303 | 31854 ft | 461 kts | 310° |
| 2026-05-05 21:49 | 11.35174 | 74.90847 | 32025 ft | 463 kts | 310° |
| 2026-05-05 21:49 | 11.37282 | 74.88359 | 32186 ft | 465 kts | 309° |
| 2026-05-05 21:49 | 11.39335 | 74.85854 | 32342 ft | 467 kts | 308° |
| 2026-05-05 21:50 | 11.41432 | 74.83259 | 32506 ft | 469 kts | 308° |
| 2026-05-05 21:50 | 11.43477 | 74.80716 | 32686 ft | 471 kts | 308° |
| 2026-05-05 21:50 | 11.45556 | 74.78135 | 32861 ft | 472 kts | 308° |
| 2026-05-05 21:50 | 11.47673 | 74.75513 | 33026 ft | 474 kts | 309° |
| 2026-05-05 21:51 | 11.49771 | 74.72922 | 33250 ft | 474 kts | 309° |
| 2026-05-05 21:51 | 11.51848 | 74.70361 | 33351 ft | 477 kts | 309° |
| 2026-05-05 21:51 | 11.53969 | 74.67749 | 33474 ft | 479 kts | 309° |
| 2026-05-05 21:51 | 11.56094 | 74.65135 | 33723 ft | 478 kts | 309° |
| 2026-05-05 21:52 | 11.62481 | 74.57270 | 33793 ft | 483 kts | 309° |
| 2026-05-05 21:53 | 11.66779 | 74.51973 | 33805 ft | 487 kts | 309° |
| 2026-05-05 21:53 | 11.71110 | 74.46632 | 33811 ft | 490 kts | 309° |
| 2026-05-05 21:54 | 11.75468 | 74.41255 | 33799 ft | 493 kts | 309° |
| 2026-05-05 21:54 | 11.79841 | 74.35856 | 33803 ft | 493 kts | 309° |
| 2026-05-05 21:55 | 11.84149 | 74.30535 | 33790 ft | 478 kts | 309° |
| 2026-05-05 21:55 | 11.88363 | 74.25327 | 33800 ft | 475 kts | 309° |
| 2026-05-05 21:56 | 11.92565 | 74.20130 | 33808 ft | 474 kts | 308° |
| 2026-05-05 21:56 | 11.96764 | 74.14935 | 33808 ft | 475 kts | 309° |
| 2026-05-05 21:57 | 12.00974 | 74.09723 | 33810 ft | 476 kts | 309° |
| 2026-05-05 21:57 | 12.05196 | 74.04494 | 33810 ft | 478 kts | 309° |
| 2026-05-05 21:58 | 12.09427 | 73.99251 | 33799 ft | 479 kts | 309° |
| 2026-05-05 21:58 | 12.13672 | 73.93987 | 33807 ft | 480 kts | 309° |
| 2026-05-05 21:59 | 12.17928 | 73.88707 | 33811 ft | 482 kts | 309° |
| 2026-05-05 21:59 | 12.22186 | 73.83420 | 33809 ft | 482 kts | 309° |
| 2026-05-05 22:00 | 12.26447 | 73.78128 | 33811 ft | 482 kts | 309° |
| 2026-05-05 22:00 | 12.30707 | 73.72835 | 33811 ft | 482 kts | 308° |
| 2026-05-05 22:01 | 12.34959 | 73.67548 | 33813 ft | 482 kts | 308° |
| 2026-05-05 22:01 | 12.39216 | 73.62252 | 33816 ft | 482 kts | 308° |
| 2026-05-05 22:02 | 12.43473 | 73.56953 | 33808 ft | 482 kts | 308° |
| 2026-05-05 22:02 | 12.47721 | 73.51661 | 33809 ft | 481 kts | 308° |
| 2026-05-05 22:03 | 12.51969 | 73.46367 | 33811 ft | 481 kts | 308° |
| 2026-05-05 22:03 | 12.56207 | 73.41082 | 33813 ft | 480 kts | 308° |
| 2026-05-05 22:04 | 12.60447 | 73.35792 | 33817 ft | 480 kts | 309° |
| 2026-05-05 22:04 | 12.64673 | 73.30516 | 33814 ft | 479 kts | 309° |
| 2026-05-05 22:05 | 12.68900 | 73.25236 | 33808 ft | 479 kts | 309° |
| 2026-05-05 22:05 | 12.73123 | 73.19958 | 33820 ft | 479 kts | 309° |
| 2026-05-05 22:06 | 12.77345 | 73.14678 | 33815 ft | 479 kts | 309° |
| 2026-05-05 22:06 | 12.81570 | 73.09391 | 33813 ft | 479 kts | 309° |
| 2026-05-05 22:07 | 12.85791 | 73.04107 | 33814 ft | 479 kts | 309° |
| 2026-05-05 22:07 | 12.90012 | 72.98819 | 33814 ft | 479 kts | 309° |
| 2026-05-05 22:08 | 12.94227 | 72.93534 | 33813 ft | 479 kts | 309° |
| 2026-05-05 22:08 | 12.98448 | 72.88241 | 33821 ft | 479 kts | 309° |
| 2026-05-05 22:09 | 13.02668 | 72.82944 | 33815 ft | 480 kts | 309° |
| 2026-05-05 22:09 | 13.06890 | 72.77643 | 33823 ft | 480 kts | 309° |
| 2026-05-05 22:10 | 13.11114 | 72.72335 | 33820 ft | 480 kts | 309° |
| 2026-05-05 22:10 | 13.15341 | 72.67020 | 33822 ft | 480 kts | 309° |
| 2026-05-05 22:11 | 13.19565 | 72.61707 | 33813 ft | 481 kts | 309° |
| 2026-05-05 22:11 | 13.23790 | 72.56388 | 33820 ft | 481 kts | 309° |
| 2026-05-05 22:12 | 13.28019 | 72.51061 | 33815 ft | 481 kts | 309° |
| 2026-05-05 22:12 | 13.32243 | 72.45737 | 33816 ft | 481 kts | 309° |
| 2026-05-05 22:13 | 13.36470 | 72.40407 | 33820 ft | 481 kts | 308° |
| 2026-05-05 22:13 | 13.40695 | 72.35075 | 33824 ft | 481 kts | 309° |
| 2026-05-05 22:14 | 13.44913 | 72.29750 | 33814 ft | 481 kts | 309° |
| 2026-05-05 22:14 | 13.49132 | 72.24419 | 33816 ft | 481 kts | 309° |
| 2026-05-05 22:15 | 13.53346 | 72.19091 | 33826 ft | 480 kts | 309° |
| 2026-05-05 22:15 | 13.57559 | 72.13761 | 33821 ft | 480 kts | 309° |
| 2026-05-05 22:16 | 13.61764 | 72.08437 | 33816 ft | 479 kts | 309° |
| 2026-05-05 22:16 | 13.65964 | 72.03116 | 33818 ft | 479 kts | 309° |
| 2026-05-05 22:17 | 13.70023 | 71.97701 | 33818 ft | 478 kts | 304° |
| 2026-05-05 22:17 | 13.73667 | 71.91994 | 33814 ft | 478 kts | 302° |
| 2026-05-05 22:18 | 13.77257 | 71.86247 | 33819 ft | 477 kts | 303° |
| 2026-05-05 22:18 | 13.80876 | 71.80514 | 33821 ft | 478 kts | 303° |
| 2026-05-05 22:19 | 13.84516 | 71.74794 | 33819 ft | 478 kts | 303° |
| 2026-05-05 22:19 | 13.88163 | 71.69070 | 33824 ft | 478 kts | 303° |
| 2026-05-05 22:20 | 13.91805 | 71.63351 | 33815 ft | 478 kts | 303° |
| 2026-05-05 22:20 | 13.95445 | 71.57627 | 33821 ft | 478 kts | 303° |
| 2026-05-05 22:21 | 13.99082 | 71.51903 | 33811 ft | 477 kts | 303° |
| 2026-05-05 22:21 | 14.02716 | 71.46180 | 33830 ft | 478 kts | 303° |
| 2026-05-05 22:22 | 14.06352 | 71.40449 | 33821 ft | 478 kts | 303° |
| 2026-05-05 22:22 | 14.09992 | 71.34710 | 33820 ft | 478 kts | 303° |
| 2026-05-05 22:23 | 14.13629 | 71.28971 | 33821 ft | 479 kts | 303° |
| 2026-05-05 22:23 | 14.16654 | 71.24194 | 33817 ft | 479 kts | 303° |
| 2026-05-05 22:24 | 14.20290 | 71.18449 | 33816 ft | 478 kts | 303° |
| 2026-05-05 22:24 | 14.23920 | 71.12708 | 33817 ft | 478 kts | 303° |
| 2026-05-05 22:25 | 14.27546 | 71.06970 | 33814 ft | 477 kts | 303° |
| 2026-05-05 22:25 | 14.31168 | 71.01233 | 33820 ft | 477 kts | 303° |
| 2026-05-05 22:26 | 14.34785 | 70.95503 | 33824 ft | 477 kts | 303° |
| 2026-05-05 22:26 | 14.38404 | 70.89834 | 33820 ft | 476 kts | 304° |
| 2026-05-05 22:27 | 14.42074 | 70.84151 | 33821 ft | 476 kts | 304° |
| 2026-05-05 22:27 | 14.45746 | 70.78457 | 33832 ft | 476 kts | 304° |
| 2026-05-05 22:28 | 14.49410 | 70.72758 | 33823 ft | 477 kts | 304° |
| 2026-05-05 22:28 | 14.53075 | 70.67049 | 33821 ft | 477 kts | 304° |
| 2026-05-05 22:29 | 14.56738 | 70.61338 | 33818 ft | 477 kts | 304° |
| 2026-05-05 22:29 | 14.60404 | 70.55619 | 33824 ft | 478 kts | 304° |
| 2026-05-05 22:30 | 14.64070 | 70.49896 | 33827 ft | 478 kts | 304° |
| 2026-05-05 22:30 | 14.67734 | 70.44172 | 33824 ft | 478 kts | 304° |
| 2026-05-05 22:31 | 14.71398 | 70.38444 | 33821 ft | 478 kts | 304° |
| 2026-05-05 22:31 | 14.75062 | 70.32712 | 33827 ft | 478 kts | 304° |
| 2026-05-05 22:32 | 14.78721 | 70.26983 | 33832 ft | 477 kts | 304° |
| 2026-05-05 22:32 | 14.82374 | 70.21261 | 33821 ft | 477 kts | 304° |
| 2026-05-05 22:33 | 14.86018 | 70.15548 | 33835 ft | 475 kts | 304° |
| 2026-05-05 22:33 | 14.89650 | 70.09850 | 33818 ft | 474 kts | 304° |
| 2026-05-05 22:34 | 14.93276 | 70.04156 | 33834 ft | 474 kts | 304° |
| 2026-05-05 22:34 | 14.96897 | 69.98466 | 33818 ft | 474 kts | 304° |
| 2026-05-05 22:35 | 15.00493 | 69.92811 | 33840 ft | 473 kts | 304° |
| 2026-05-05 22:35 | 15.04134 | 69.87081 | 33835 ft | 474 kts | 304° |
| 2026-05-05 22:36 | 15.07751 | 69.81384 | 33844 ft | 473 kts | 304° |
| 2026-05-05 22:36 | 15.11355 | 69.75706 | 33820 ft | 472 kts | 304° |
| 2026-05-05 22:37 | 15.14943 | 69.70092 | 33829 ft | 470 kts | 304° |
| 2026-05-05 22:37 | 15.18573 | 69.64463 | 33845 ft | 470 kts | 304° |
| 2026-05-05 22:38 | 15.22195 | 69.58840 | 33828 ft | 469 kts | 304° |
| 2026-05-05 22:38 | 15.25814 | 69.53208 | 33827 ft | 470 kts | 304° |
| 2026-05-05 22:39 | 15.29430 | 69.47572 | 33833 ft | 470 kts | 304° |
| 2026-05-05 22:39 | 15.33053 | 69.41922 | 33825 ft | 471 kts | 304° |
| 2026-05-05 22:40 | 15.36697 | 69.36234 | 33840 ft | 470 kts | 304° |
| 2026-05-05 22:40 | 15.40312 | 69.30587 | 33822 ft | 470 kts | 304° |
| 2026-05-05 22:41 | 15.43928 | 69.24935 | 33826 ft | 470 kts | 304° |
| 2026-05-05 22:41 | 15.47540 | 69.19284 | 33822 ft | 470 kts | 304° |
| 2026-05-05 22:42 | 15.51129 | 69.13667 | 33829 ft | 471 kts | 304° |
| 2026-05-05 22:42 | 15.54743 | 69.08004 | 33848 ft | 471 kts | 304° |
| 2026-05-05 22:43 | 15.58358 | 69.02337 | 33825 ft | 471 kts | 304° |
| 2026-05-05 22:43 | 15.61971 | 68.96668 | 33833 ft | 471 kts | 304° |
| 2026-05-05 22:44 | 15.65577 | 68.91006 | 33836 ft | 470 kts | 303° |
| 2026-05-05 22:44 | 15.69182 | 68.85341 | 33834 ft | 470 kts | 303° |
| 2026-05-05 22:45 | 15.72782 | 68.79679 | 33837 ft | 470 kts | 303° |
| 2026-05-05 22:45 | 15.76387 | 68.74007 | 33834 ft | 471 kts | 303° |
| 2026-05-05 22:46 | 15.79990 | 68.68333 | 33836 ft | 471 kts | 303° |
| 2026-05-05 22:46 | 15.83594 | 68.62651 | 33833 ft | 471 kts | 303° |
| 2026-05-05 22:47 | 15.87196 | 68.56969 | 33852 ft | 471 kts | 303° |
| 2026-05-05 22:47 | 15.90795 | 68.51288 | 33841 ft | 471 kts | 303° |
| 2026-05-05 22:48 | 15.94393 | 68.45603 | 33833 ft | 471 kts | 303° |
| 2026-05-05 22:48 | 15.97988 | 68.39920 | 33841 ft | 471 kts | 303° |
| 2026-05-05 22:49 | 16.01582 | 68.34233 | 33835 ft | 471 kts | 303° |
| 2026-05-05 22:49 | 16.05175 | 68.28544 | 33847 ft | 471 kts | 303° |
| 2026-05-05 22:50 | 16.08767 | 68.22852 | 33839 ft | 471 kts | 303° |
| 2026-05-05 22:50 | 16.12357 | 68.17157 | 33848 ft | 471 kts | 303° |
| 2026-05-05 22:51 | 16.15945 | 68.11462 | 33837 ft | 471 kts | 303° |
| 2026-05-05 22:51 | 16.19533 | 68.05763 | 33841 ft | 471 kts | 303° |
| 2026-05-05 22:52 | 16.23121 | 68.00056 | 33845 ft | 471 kts | 303° |
| 2026-05-05 22:52 | 16.26707 | 67.94351 | 33846 ft | 471 kts | 303° |
| 2026-05-05 22:53 | 16.30312 | 67.88654 | 33841 ft | 471 kts | 303° |
| 2026-05-05 22:53 | 16.33931 | 67.82964 | 33839 ft | 471 kts | 303° |
| 2026-05-05 22:54 | 16.37542 | 67.77277 | 33861 ft | 471 kts | 303° |
| 2026-05-05 22:54 | 16.41148 | 67.71588 | 33840 ft | 471 kts | 303° |
| 2026-05-05 22:55 | 16.44752 | 67.65895 | 33843 ft | 471 kts | 303° |
| 2026-05-05 22:55 | 16.48352 | 67.60201 | 33843 ft | 471 kts | 303° |
| 2026-05-05 22:56 | 16.51951 | 67.54507 | 33848 ft | 470 kts | 303° |
| 2026-05-05 22:56 | 16.55544 | 67.48817 | 33842 ft | 470 kts | 303° |
| 2026-05-05 22:57 | 16.59135 | 67.43125 | 33843 ft | 470 kts | 303° |
| 2026-05-05 22:57 | 16.62728 | 67.37426 | 33848 ft | 470 kts | 303° |
| 2026-05-05 22:58 | 16.66316 | 67.31730 | 33847 ft | 470 kts | 303° |
| 2026-05-05 22:58 | 16.69903 | 67.26033 | 33848 ft | 470 kts | 303° |
| 2026-05-05 22:59 | 16.73489 | 67.20331 | 33847 ft | 470 kts | 303° |
| 2026-05-05 22:59 | 16.77073 | 67.14628 | 33859 ft | 470 kts | 303° |
| 2026-05-05 23:00 | 16.82446 | 67.06068 | 33848 ft | 470 kts | 303° |
| 2026-05-05 23:00 | 16.86024 | 67.00363 | 33848 ft | 469 kts | 303° |
| 2026-05-05 23:01 | 16.89595 | 66.94664 | 33854 ft | 469 kts | 303° |
| 2026-05-05 23:01 | 16.93166 | 66.88960 | 33853 ft | 469 kts | 303° |
| 2026-05-05 23:02 | 16.96735 | 66.83256 | 33855 ft | 469 kts | 303° |
| 2026-05-05 23:02 | 17.00302 | 66.77550 | 33856 ft | 469 kts | 303° |
| 2026-05-05 23:03 | 17.03868 | 66.71841 | 33861 ft | 469 kts | 303° |
| 2026-05-05 23:03 | 17.07427 | 66.66138 | 33853 ft | 468 kts | 303° |
| 2026-05-05 23:04 | 17.10983 | 66.60434 | 33855 ft | 468 kts | 303° |
| 2026-05-05 23:04 | 17.14536 | 66.54732 | 33854 ft | 468 kts | 303° |
| 2026-05-05 23:05 | 17.18081 | 66.49036 | 33856 ft | 467 kts | 303° |
| 2026-05-05 23:05 | 17.21626 | 66.43337 | 33857 ft | 467 kts | 302° |
| 2026-05-05 23:06 | 17.25165 | 66.37642 | 33855 ft | 467 kts | 302° |
| 2026-05-05 23:06 | 17.28704 | 66.31943 | 33858 ft | 467 kts | 302° |
| 2026-05-05 23:07 | 17.31642 | 66.27206 | 33856 ft | 467 kts | 302° |
| 2026-05-05 23:07 | 17.35178 | 66.21503 | 33857 ft | 467 kts | 302° |
| 2026-05-05 23:08 | 17.38706 | 66.15808 | 33857 ft | 467 kts | 302° |
| 2026-05-05 23:08 | 17.42238 | 66.10101 | 33858 ft | 467 kts | 302° |
| 2026-05-05 23:09 | 17.45771 | 66.04387 | 33859 ft | 467 kts | 302° |
| 2026-05-05 23:09 | 17.49303 | 65.98671 | 33857 ft | 467 kts | 302° |
| 2026-05-05 23:10 | 17.52832 | 65.92954 | 33853 ft | 467 kts | 302° |
| 2026-05-05 23:10 | 17.56361 | 65.87231 | 33860 ft | 467 kts | 302° |
| 2026-05-05 23:11 | 17.59886 | 65.81510 | 33856 ft | 467 kts | 302° |
| 2026-05-05 23:11 | 17.63427 | 65.75807 | 33860 ft | 467 kts | 303° |
| 2026-05-05 23:12 | 17.67061 | 65.70168 | 33855 ft | 466 kts | 303° |
| 2026-05-05 23:12 | 17.70708 | 65.64542 | 33857 ft | 466 kts | 303° |
| 2026-05-05 23:13 | 17.74341 | 65.58911 | 33859 ft | 466 kts | 303° |
| 2026-05-05 23:13 | 17.77965 | 65.53273 | 33859 ft | 466 kts | 303° |
| 2026-05-05 23:14 | 17.81585 | 65.47627 | 33861 ft | 466 kts | 303° |
| 2026-05-05 23:14 | 17.85203 | 65.41982 | 33859 ft | 466 kts | 303° |
| 2026-05-05 23:15 | 17.88820 | 65.36332 | 33862 ft | 466 kts | 303° |
| 2026-05-05 23:15 | 17.92436 | 65.30683 | 33861 ft | 466 kts | 303° |
| 2026-05-05 23:16 | 17.96049 | 65.25030 | 33861 ft | 466 kts | 303° |
| 2026-05-05 23:16 | 17.99662 | 65.19374 | 33859 ft | 466 kts | 303° |
| 2026-05-05 23:17 | 18.03271 | 65.13719 | 33860 ft | 466 kts | 303° |
| 2026-05-05 23:17 | 18.06859 | 65.08092 | 33860 ft | 466 kts | 303° |
| 2026-05-05 23:18 | 18.10466 | 65.02430 | 33862 ft | 466 kts | 303° |
| 2026-05-05 23:18 | 18.14077 | 64.96757 | 33862 ft | 467 kts | 303° |
| 2026-05-05 23:19 | 18.17688 | 64.91080 | 33860 ft | 467 kts | 303° |
| 2026-05-05 23:19 | 18.21296 | 64.85402 | 33859 ft | 467 kts | 303° |
| 2026-05-05 23:20 | 18.24901 | 64.79723 | 33863 ft | 467 kts | 303° |
| 2026-05-05 23:20 | 18.28506 | 64.74040 | 33862 ft | 467 kts | 303° |
| 2026-05-05 23:21 | 18.32109 | 64.68356 | 33858 ft | 467 kts | 303° |
| 2026-05-05 23:21 | 18.35710 | 64.62668 | 33864 ft | 467 kts | 303° |
| 2026-05-05 23:22 | 18.39311 | 64.56976 | 33858 ft | 467 kts | 303° |
| 2026-05-05 23:22 | 18.42911 | 64.51280 | 33856 ft | 467 kts | 303° |
| 2026-05-05 23:23 | 18.46510 | 64.45581 | 33862 ft | 467 kts | 303° |
| 2026-05-05 23:23 | 18.50109 | 64.39878 | 33860 ft | 467 kts | 303° |
| 2026-05-05 23:24 | 18.53705 | 64.34172 | 33857 ft | 467 kts | 303° |
| 2026-05-05 23:24 | 18.57300 | 64.28464 | 33861 ft | 467 kts | 303° |
| 2026-05-05 23:25 | 18.60892 | 64.22755 | 33859 ft | 468 kts | 303° |
| 2026-05-05 23:25 | 18.64491 | 64.17030 | 33865 ft | 468 kts | 303° |
| 2026-05-05 23:26 | 18.68093 | 64.11296 | 33859 ft | 469 kts | 303° |
| 2026-05-05 23:26 | 18.71695 | 64.05557 | 33859 ft | 469 kts | 303° |
| 2026-05-05 23:27 | 18.75296 | 63.99812 | 33858 ft | 469 kts | 303° |
| 2026-05-05 23:27 | 18.78896 | 63.94065 | 33860 ft | 470 kts | 303° |
| 2026-05-05 23:28 | 18.82497 | 63.88310 | 33858 ft | 470 kts | 303° |
| 2026-05-05 23:28 | 18.86096 | 63.82553 | 33862 ft | 470 kts | 304° |
| 2026-05-05 23:29 | 18.89674 | 63.76825 | 33861 ft | 471 kts | 304° |
| 2026-05-05 23:29 | 18.93274 | 63.71057 | 33856 ft | 471 kts | 304° |
| 2026-05-05 23:30 | 18.96877 | 63.65277 | 33864 ft | 471 kts | 304° |
| 2026-05-05 23:30 | 19.00481 | 63.59492 | 33861 ft | 471 kts | 304° |
| 2026-05-05 23:31 | 19.04083 | 63.53709 | 33860 ft | 471 kts | 304° |
| 2026-05-05 23:31 | 19.07686 | 63.47921 | 33858 ft | 471 kts | 304° |
| 2026-05-05 23:32 | 19.11285 | 63.42131 | 33855 ft | 471 kts | 304° |
| 2026-05-05 23:32 | 19.14884 | 63.36336 | 33858 ft | 471 kts | 304° |
| 2026-05-05 23:33 | 19.18478 | 63.30542 | 33855 ft | 471 kts | 304° |
| 2026-05-05 23:33 | 19.22075 | 63.24739 | 33860 ft | 471 kts | 304° |
| 2026-05-05 23:34 | 19.25670 | 63.18933 | 33853 ft | 472 kts | 304° |
| 2026-05-05 23:34 | 19.29260 | 63.13129 | 33858 ft | 471 kts | 304° |
| 2026-05-05 23:35 | 19.32847 | 63.07326 | 33852 ft | 471 kts | 304° |
| 2026-05-05 23:35 | 19.36456 | 63.01481 | 33858 ft | 471 kts | 304° |
| 2026-05-05 23:36 | 19.40013 | 62.95715 | 33849 ft | 471 kts | 304° |
| 2026-05-05 23:36 | 19.43591 | 62.89909 | 33855 ft | 471 kts | 304° |
| 2026-05-05 23:37 | 19.47166 | 62.84102 | 33854 ft | 470 kts | 304° |
| 2026-05-05 23:37 | 19.50742 | 62.78289 | 33853 ft | 470 kts | 304° |
| 2026-05-05 23:38 | 19.54311 | 62.72481 | 33856 ft | 470 kts | 304° |
| 2026-05-05 23:38 | 19.57882 | 62.66664 | 33856 ft | 471 kts | 303° |
| 2026-05-05 23:39 | 19.61449 | 62.60848 | 33854 ft | 470 kts | 303° |
| 2026-05-05 23:39 | 19.65010 | 62.55037 | 33853 ft | 470 kts | 303° |
| 2026-05-05 23:40 | 19.68569 | 62.49223 | 33856 ft | 469 kts | 303° |
| 2026-05-05 23:40 | 19.72122 | 62.43413 | 33854 ft | 469 kts | 303° |
| 2026-05-05 23:41 | 19.75669 | 62.37607 | 33851 ft | 469 kts | 303° |
| 2026-05-05 23:41 | 19.79217 | 62.31794 | 33851 ft | 469 kts | 303° |
| 2026-05-05 23:42 | 19.82759 | 62.25985 | 33856 ft | 469 kts | 303° |
| 2026-05-05 23:42 | 19.86305 | 62.20163 | 33849 ft | 469 kts | 303° |
| 2026-05-05 23:43 | 19.89851 | 62.14337 | 33864 ft | 470 kts | 303° |
| 2026-05-05 23:43 | 19.93397 | 62.08504 | 33850 ft | 470 kts | 303° |
| 2026-05-05 23:44 | 19.96943 | 62.02666 | 33853 ft | 470 kts | 303° |
| 2026-05-05 23:44 | 20.00484 | 61.96830 | 33849 ft | 470 kts | 303° |
| 2026-05-05 23:45 | 20.04027 | 61.90986 | 33862 ft | 470 kts | 303° |
| 2026-05-05 23:45 | 20.07565 | 61.85142 | 33850 ft | 470 kts | 303° |
| 2026-05-05 23:46 | 20.11099 | 61.79300 | 33852 ft | 469 kts | 303° |
| 2026-05-05 23:46 | 20.14625 | 61.73466 | 33845 ft | 469 kts | 303° |
| 2026-05-05 23:47 | 20.18145 | 61.67635 | 33855 ft | 468 kts | 303° |
| 2026-05-05 23:47 | 20.21658 | 61.61812 | 33844 ft | 467 kts | 303° |
| 2026-05-05 23:48 | 20.25167 | 61.55988 | 33858 ft | 467 kts | 303° |
| 2026-05-05 23:48 | 20.28675 | 61.50160 | 33851 ft | 467 kts | 303° |
| 2026-05-05 23:49 | 20.32180 | 61.44331 | 33853 ft | 467 kts | 303° |
| 2026-05-05 23:49 | 20.35684 | 61.38499 | 33844 ft | 467 kts | 303° |
| 2026-05-05 23:50 | 20.38593 | 61.33652 | 33856 ft | 467 kts | 303° |
| 2026-05-05 23:50 | 20.42087 | 61.27824 | 33854 ft | 466 kts | 303° |
| 2026-05-05 23:51 | 20.45581 | 61.21991 | 33848 ft | 467 kts | 303° |
| 2026-05-05 23:51 | 20.49073 | 61.16156 | 33846 ft | 467 kts | 303° |
| 2026-05-05 23:52 | 20.52563 | 61.10318 | 33857 ft | 467 kts | 303° |
| 2026-05-05 23:52 | 20.56050 | 61.04477 | 33847 ft | 466 kts | 303° |
| 2026-05-05 23:53 | 20.59530 | 60.98644 | 33848 ft | 466 kts | 303° |
| 2026-05-05 23:53 | 20.62578 | 60.92561 | 33839 ft | 466 kts | 290° |
| 2026-05-05 23:54 | 20.64609 | 60.85994 | 33847 ft | 466 kts | 288° |
| 2026-05-05 23:54 | 20.66590 | 60.79404 | 33847 ft | 466 kts | 288° |
| 2026-05-05 23:55 | 20.68605 | 60.72822 | 33844 ft | 466 kts | 289° |
| 2026-05-05 23:55 | 20.70642 | 60.66243 | 33846 ft | 467 kts | 289° |
| 2026-05-05 23:56 | 20.72683 | 60.59665 | 33846 ft | 466 kts | 289° |
| 2026-05-05 23:56 | 20.74719 | 60.53087 | 33844 ft | 466 kts | 289° |
| 2026-05-05 23:57 | 20.76751 | 60.46510 | 33841 ft | 466 kts | 289° |
| 2026-05-05 23:57 | 20.78782 | 60.39924 | 33842 ft | 466 kts | 288° |
| 2026-05-05 23:58 | 20.80810 | 60.33340 | 33839 ft | 466 kts | 288° |
| 2026-05-05 23:58 | 20.82835 | 60.26755 | 33839 ft | 466 kts | 288° |
| 2026-05-05 23:59 | 20.84858 | 60.20166 | 33842 ft | 467 kts | 288° |
| 2026-05-05 23:59 | 20.86878 | 60.13575 | 33843 ft | 466 kts | 288° |
| 2026-05-06 00:00 | 20.88896 | 60.06984 | 33844 ft | 466 kts | 288° |
| 2026-05-06 00:00 | 20.90909 | 60.00394 | 33840 ft | 466 kts | 288° |
| 2026-05-06 00:01 | 20.92921 | 59.93803 | 33842 ft | 466 kts | 288° |
| 2026-05-06 00:01 | 20.94927 | 59.87217 | 33840 ft | 466 kts | 288° |
| 2026-05-06 00:02 | 20.96931 | 59.80629 | 33843 ft | 466 kts | 288° |
| 2026-05-06 00:02 | 20.98919 | 59.74085 | 33841 ft | 466 kts | 288° |
| 2026-05-06 00:03 | 21.00915 | 59.67492 | 33839 ft | 466 kts | 288° |
| 2026-05-06 00:03 | 21.02861 | 59.60877 | 33841 ft | 466 kts | 287° |